sensor_id;sensor_type;location;lat;lon;timestamp;P1;durP1;ratioP1;P2;durP2;ratioP2
30335;SDS011;17142;47.990;7.846;2023-04-21T00:01:12;2.50;;;2.30;;
30335;SDS011;17142;47.990;7.846;2023-04-21T00:03:39;3.30;;;2.63;;
30335;SDS011;17142;47.990;7.846;2023-04-21T00:06:05;3.80;;;2.77;;
30335;SDS011;17142;47.990;7.846;2023-04-21T00:08:31;3.63;;;2.50;;
30335;SDS011;17142;47.990;7.846;2023-04-21T00:11:04;3.00;;;2.53;;
30335;SDS011;17142;47.990;7.846;2023-04-21T00:13:30;2.10;;;2.00;;
30335;SDS011;17142;47.990;7.846;2023-04-21T00:15:56;2.53;;;2.33;;
30335;SDS011;17142;47.990;7.846;2023-04-21T00:18:27;2.67;;;2.40;;
30335;SDS011;17142;47.990;7.846;2023-04-21T00:20:53;3.40;;;2.43;;
30335;SDS011;17142;47.990;7.846;2023-04-21T00:23:19;2.73;;;2.50;;
30335;SDS011;17142;47.990;7.846;2023-04-21T00:25:44;2.30;;;2.10;;
30335;SDS011;17142;47.990;7.846;2023-04-21T00:28:10;2.37;;;2.17;;
30335;SDS011;17142;47.990;7.846;2023-04-21T00:30:35;3.10;;;2.70;;
30335;SDS011;17142;47.990;7.846;2023-04-21T00:33:03;2.73;;;2.37;;
30335;SDS011;17142;47.990;7.846;2023-04-21T00:35:29;2.77;;;2.57;;
30335;SDS011;17142;47.990;7.846;2023-04-21T00:37:57;3.73;;;2.80;;
30335;SDS011;17142;47.990;7.846;2023-04-21T00:40:22;4.73;;;2.20;;
30335;SDS011;17142;47.990;7.846;2023-04-21T00:42:48;3.90;;;2.37;;
30335;SDS011;17142;47.990;7.846;2023-04-21T00:45:16;2.50;;;2.30;;
30335;SDS011;17142;47.990;7.846;2023-04-21T00:47:41;3.00;;;2.00;;
30335;SDS011;17142;47.990;7.846;2023-04-21T00:50:07;2.70;;;1.90;;
30335;SDS011;17142;47.990;7.846;2023-04-21T00:52:34;5.40;;;3.03;;
30335;SDS011;17142;47.990;7.846;2023-04-21T00:55:00;2.97;;;2.43;;
30335;SDS011;17142;47.990;7.846;2023-04-21T00:57:26;2.03;;;1.93;;
30335;SDS011;17142;47.990;7.846;2023-04-21T00:59:53;2.50;;;1.70;;
30335;SDS011;17142;47.990;7.846;2023-04-21T01:02:18;2.30;;;2.10;;
30335;SDS011;17142;47.990;7.846;2023-04-21T01:04:47;2.80;;;2.50;;
30335;SDS011;17142;47.990;7.846;2023-04-21T01:07:13;5.23;;;2.70;;
30335;SDS011;17142;47.990;7.846;2023-04-21T01:09:40;2.50;;;2.30;;
30335;SDS011;17142;47.990;7.846;2023-04-21T01:12:09;4.63;;;2.93;;
30335;SDS011;17142;47.990;7.846;2023-04-21T01:14:37;4.20;;;2.80;;
30335;SDS011;17142;47.990;7.846;2023-04-21T01:17:04;3.40;;;2.87;;
30335;SDS011;17142;47.990;7.846;2023-04-21T01:19:38;4.83;;;3.10;;
30335;SDS011;17142;47.990;7.846;2023-04-21T01:22:07;4.87;;;3.00;;
30335;SDS011;17142;47.990;7.846;2023-04-21T01:24:44;3.63;;;2.77;;
30335;SDS011;17142;47.990;7.846;2023-04-21T01:27:12;2.70;;;2.43;;
30335;SDS011;17142;47.990;7.846;2023-04-21T01:29:43;3.07;;;2.37;;
30335;SDS011;17142;47.990;7.846;2023-04-21T01:32:13;3.30;;;2.70;;
30335;SDS011;17142;47.990;7.846;2023-04-21T01:34:41;3.90;;;2.93;;
30335;SDS011;17142;47.990;7.846;2023-04-21T01:37:07;2.93;;;2.47;;
30335;SDS011;17142;47.990;7.846;2023-04-21T01:39:41;4.00;;;3.17;;
30335;SDS011;17142;47.990;7.846;2023-04-21T01:42:08;2.80;;;2.40;;
30335;SDS011;17142;47.990;7.846;2023-04-21T01:44:36;3.70;;;3.07;;
30335;SDS011;17142;47.990;7.846;2023-04-21T01:47:02;5.03;;;2.70;;
30335;SDS011;17142;47.990;7.846;2023-04-21T01:49:30;3.60;;;3.00;;
30335;SDS011;17142;47.990;7.846;2023-04-21T01:51:56;3.97;;;2.80;;
30335;SDS011;17142;47.990;7.846;2023-04-21T01:54:24;3.77;;;2.90;;
30335;SDS011;17142;47.990;7.846;2023-04-21T01:56:52;4.20;;;3.10;;
30335;SDS011;17142;47.990;7.846;2023-04-21T01:59:18;4.23;;;3.60;;
30335;SDS011;17142;47.990;7.846;2023-04-21T02:01:43;3.10;;;2.80;;
30335;SDS011;17142;47.990;7.846;2023-04-21T02:04:09;3.40;;;3.10;;
30335;SDS011;17142;47.990;7.846;2023-04-21T02:06:35;3.60;;;2.93;;
30335;SDS011;17142;47.990;7.846;2023-04-21T02:09:00;3.30;;;2.97;;
30335;SDS011;17142;47.990;7.846;2023-04-21T02:11:26;4.27;;;2.83;;
30335;SDS011;17142;47.990;7.846;2023-04-21T02:13:52;4.03;;;2.80;;
30335;SDS011;17142;47.990;7.846;2023-04-21T02:16:18;2.90;;;2.40;;
30335;SDS011;17142;47.990;7.846;2023-04-21T02:18:50;2.90;;;2.53;;
30335;SDS011;17142;47.990;7.846;2023-04-21T02:21:20;3.27;;;2.97;;
30335;SDS011;17142;47.990;7.846;2023-04-21T02:23:47;4.47;;;2.93;;
30335;SDS011;17142;47.990;7.846;2023-04-21T02:26:13;3.20;;;2.80;;
30335;SDS011;17142;47.990;7.846;2023-04-21T02:28:39;4.50;;;3.13;;
30335;SDS011;17142;47.990;7.846;2023-04-21T02:31:05;3.13;;;2.83;;
30335;SDS011;17142;47.990;7.846;2023-04-21T02:33:35;3.10;;;2.80;;
30335;SDS011;17142;47.990;7.846;2023-04-21T02:36:01;3.50;;;3.10;;
30335;SDS011;17142;47.990;7.846;2023-04-21T02:38:27;3.37;;;3.07;;
30335;SDS011;17142;47.990;7.846;2023-04-21T02:40:54;4.30;;;3.60;;
30335;SDS011;17142;47.990;7.846;2023-04-21T02:43:20;5.30;;;4.00;;
30335;SDS011;17142;47.990;7.846;2023-04-21T02:45:46;3.30;;;3.00;;
30335;SDS011;17142;47.990;7.846;2023-04-21T02:48:14;4.43;;;3.53;;
30335;SDS011;17142;47.990;7.846;2023-04-21T02:50:42;3.20;;;2.90;;
30335;SDS011;17142;47.990;7.846;2023-04-21T02:53:08;3.43;;;3.10;;
30335;SDS011;17142;47.990;7.846;2023-04-21T02:55:33;5.27;;;4.77;;
30335;SDS011;17142;47.990;7.846;2023-04-21T02:57:59;4.13;;;3.77;;
30335;SDS011;17142;47.990;7.846;2023-04-21T03:00:24;5.20;;;3.97;;
30335;SDS011;17142;47.990;7.846;2023-04-21T03:02:50;5.90;;;3.30;;
30335;SDS011;17142;47.990;7.846;2023-04-21T03:05:18;3.57;;;3.13;;
30335;SDS011;17142;47.990;7.846;2023-04-21T03:07:46;4.07;;;3.10;;
30335;SDS011;17142;47.990;7.846;2023-04-21T03:10:14;4.60;;;3.70;;
30335;SDS011;17142;47.990;7.846;2023-04-21T03:12:43;5.87;;;4.83;;
30335;SDS011;17142;47.990;7.846;2023-04-21T03:15:16;3.63;;;3.33;;
30335;SDS011;17142;47.990;7.846;2023-04-21T03:17:44;4.10;;;2.93;;
30335;SDS011;17142;47.990;7.846;2023-04-21T03:20:13;3.73;;;3.43;;
30335;SDS011;17142;47.990;7.846;2023-04-21T03:22:41;3.70;;;3.40;;
30335;SDS011;17142;47.990;7.846;2023-04-21T03:25:09;3.83;;;3.47;;
30335;SDS011;17142;47.990;7.846;2023-04-21T03:27:38;3.80;;;3.50;;
30335;SDS011;17142;47.990;7.846;2023-04-21T03:30:04;4.70;;;3.50;;
30335;SDS011;17142;47.990;7.846;2023-04-21T03:32:30;5.00;;;3.50;;
30335;SDS011;17142;47.990;7.846;2023-04-21T03:34:56;3.23;;;3.03;;
30335;SDS011;17142;47.990;7.846;2023-04-21T03:37:22;4.80;;;2.90;;
30335;SDS011;17142;47.990;7.846;2023-04-21T03:39:47;8.00;;;2.87;;
30335;SDS011;17142;47.990;7.846;2023-04-21T03:42:13;3.77;;;3.40;;
30335;SDS011;17142;47.990;7.846;2023-04-21T03:44:39;2.73;;;2.50;;
30335;SDS011;17142;47.990;7.846;2023-04-21T03:47:04;4.03;;;3.10;;
30335;SDS011;17142;47.990;7.846;2023-04-21T03:49:32;4.67;;;3.63;;
30335;SDS011;17142;47.990;7.846;2023-04-21T03:51:58;3.77;;;3.30;;
30335;SDS011;17142;47.990;7.846;2023-04-21T03:54:24;4.03;;;3.63;;
30335;SDS011;17142;47.990;7.846;2023-04-21T03:56:49;3.13;;;2.83;;
30335;SDS011;17142;47.990;7.846;2023-04-21T03:59:15;4.20;;;2.83;;
30335;SDS011;17142;47.990;7.846;2023-04-21T04:01:41;4.30;;;3.50;;
30335;SDS011;17142;47.990;7.846;2023-04-21T04:04:07;2.60;;;2.40;;
30335;SDS011;17142;47.990;7.846;2023-04-21T04:06:33;3.23;;;2.77;;
30335;SDS011;17142;47.990;7.846;2023-04-21T04:09:01;4.27;;;2.97;;
30335;SDS011;17142;47.990;7.846;2023-04-21T04:11:28;6.73;;;3.00;;
30335;SDS011;17142;47.990;7.846;2023-04-21T04:13:54;6.07;;;3.47;;
30335;SDS011;17142;47.990;7.846;2023-04-21T04:16:22;3.17;;;2.87;;
30335;SDS011;17142;47.990;7.846;2023-04-21T04:18:48;3.33;;;2.73;;
30335;SDS011;17142;47.990;7.846;2023-04-21T04:21:14;2.30;;;2.10;;
30335;SDS011;17142;47.990;7.846;2023-04-21T04:23:40;3.10;;;2.83;;
30335;SDS011;17142;47.990;7.846;2023-04-21T04:26:06;4.37;;;3.70;;
30335;SDS011;17142;47.990;7.846;2023-04-21T04:28:32;3.70;;;3.10;;
30335;SDS011;17142;47.990;7.846;2023-04-21T04:31:00;6.93;;;3.37;;
30335;SDS011;17142;47.990;7.846;2023-04-21T04:33:27;8.10;;;3.83;;
30335;SDS011;17142;47.990;7.846;2023-04-21T04:35:52;3.90;;;3.40;;
30335;SDS011;17142;47.990;7.846;2023-04-21T04:38:18;3.50;;;3.00;;
30335;SDS011;17142;47.990;7.846;2023-04-21T04:40:46;4.90;;;3.47;;
30335;SDS011;17142;47.990;7.846;2023-04-21T04:43:19;3.60;;;3.27;;
30335;SDS011;17142;47.990;7.846;2023-04-21T04:45:45;5.20;;;4.13;;
30335;SDS011;17142;47.990;7.846;2023-04-21T04:48:11;5.67;;;3.87;;
30335;SDS011;17142;47.990;7.846;2023-04-21T04:50:37;4.07;;;3.60;;
30335;SDS011;17142;47.990;7.846;2023-04-21T04:53:02;4.33;;;3.93;;
30335;SDS011;17142;47.990;7.846;2023-04-21T04:55:28;3.90;;;3.50;;
30335;SDS011;17142;47.990;7.846;2023-04-21T04:57:53;4.30;;;3.50;;
30335;SDS011;17142;47.990;7.846;2023-04-21T05:00:19;6.80;;;4.13;;
30335;SDS011;17142;47.990;7.846;2023-04-21T05:02:45;4.03;;;3.63;;
30335;SDS011;17142;47.990;7.846;2023-04-21T05:05:13;4.43;;;3.53;;
30335;SDS011;17142;47.990;7.846;2023-04-21T05:07:41;5.00;;;3.23;;
30335;SDS011;17142;47.990;7.846;2023-04-21T05:10:07;3.27;;;2.80;;
30335;SDS011;17142;47.990;7.846;2023-04-21T05:12:35;4.83;;;2.50;;
30335;SDS011;17142;47.990;7.846;2023-04-21T05:15:01;2.30;;;2.10;;
30335;SDS011;17142;47.990;7.846;2023-04-21T05:17:28;3.07;;;2.47;;
30335;SDS011;17142;47.990;7.846;2023-04-21T05:19:55;2.80;;;2.20;;
30335;SDS011;17142;47.990;7.846;2023-04-21T05:22:23;2.43;;;2.00;;
30335;SDS011;17142;47.990;7.846;2023-04-21T05:24:48;2.23;;;1.77;;
30335;SDS011;17142;47.990;7.846;2023-04-21T05:27:14;3.00;;;2.10;;
30335;SDS011;17142;47.990;7.846;2023-04-21T05:29:40;3.00;;;2.00;;
30335;SDS011;17142;47.990;7.846;2023-04-21T05:32:08;2.57;;;2.00;;
30335;SDS011;17142;47.990;7.846;2023-04-21T05:34:36;1.67;;;1.50;;
30335;SDS011;17142;47.990;7.846;2023-04-21T05:37:04;1.50;;;1.40;;
30335;SDS011;17142;47.990;7.846;2023-04-21T05:39:29;2.20;;;1.50;;
30335;SDS011;17142;47.990;7.846;2023-04-21T05:41:57;1.57;;;1.47;;
30335;SDS011;17142;47.990;7.846;2023-04-21T05:44:23;1.47;;;1.37;;
30335;SDS011;17142;47.990;7.846;2023-04-21T05:46:53;2.80;;;2.00;;
30335;SDS011;17142;47.990;7.846;2023-04-21T05:49:19;2.37;;;1.67;;
30335;SDS011;17142;47.990;7.846;2023-04-21T05:51:45;2.60;;;1.80;;
30335;SDS011;17142;47.990;7.846;2023-04-21T05:54:15;1.77;;;1.57;;
30335;SDS011;17142;47.990;7.846;2023-04-21T05:56:40;2.03;;;1.80;;
30335;SDS011;17142;47.990;7.846;2023-04-21T05:59:06;3.37;;;2.10;;
30335;SDS011;17142;47.990;7.846;2023-04-21T06:01:34;2.90;;;1.30;;
30335;SDS011;17142;47.990;7.846;2023-04-21T06:03:59;1.63;;;1.33;;
30335;SDS011;17142;47.990;7.846;2023-04-21T06:06:25;2.20;;;2.00;;
30335;SDS011;17142;47.990;7.846;2023-04-21T06:08:52;1.70;;;1.40;;
30335;SDS011;17142;47.990;7.846;2023-04-21T06:11:17;1.67;;;1.43;;
30335;SDS011;17142;47.990;7.846;2023-04-21T06:13:58;1.23;;;1.13;;
30335;SDS011;17142;47.990;7.846;2023-04-21T06:16:37;2.63;;;1.50;;
30335;SDS011;17142;47.990;7.846;2023-04-21T06:19:02;1.87;;;1.70;;
30335;SDS011;17142;47.990;7.846;2023-04-21T06:24:25;3.10;;;1.90;;
30335;SDS011;17142;47.990;7.846;2023-04-21T06:30:15;2.10;;;2.00;;
30335;SDS011;17142;47.990;7.846;2023-04-21T06:32:54;3.03;;;1.57;;
30335;SDS011;17142;47.990;7.846;2023-04-21T06:35:26;2.43;;;2.23;;
30335;SDS011;17142;47.990;7.846;2023-04-21T06:37:52;2.63;;;2.43;;
30335;SDS011;17142;47.990;7.846;2023-04-21T06:40:23;3.20;;;2.90;;
30335;SDS011;17142;47.990;7.846;2023-04-21T06:42:55;2.67;;;1.90;;
30335;SDS011;17142;47.990;7.846;2023-04-21T06:45:26;3.30;;;2.83;;
30335;SDS011;17142;47.990;7.846;2023-04-21T06:47:58;4.07;;;2.43;;
30335;SDS011;17142;47.990;7.846;2023-04-21T06:50:24;2.60;;;2.40;;
30335;SDS011;17142;47.990;7.846;2023-04-21T06:52:49;3.20;;;2.53;;
30335;SDS011;17142;47.990;7.846;2023-04-21T06:55:21;3.00;;;2.40;;
30335;SDS011;17142;47.990;7.846;2023-04-21T06:57:46;4.20;;;2.43;;
30335;SDS011;17142;47.990;7.846;2023-04-21T07:00:27;2.50;;;2.30;;
30335;SDS011;17142;47.990;7.846;2023-04-21T07:03:10;5.27;;;2.80;;
30335;SDS011;17142;47.990;7.846;2023-04-21T07:05:42;3.33;;;1.87;;
30335;SDS011;17142;47.990;7.846;2023-04-21T07:08:14;3.00;;;2.50;;
30335;SDS011;17142;47.990;7.846;2023-04-21T07:10:48;2.00;;;1.90;;
30335;SDS011;17142;47.990;7.846;2023-04-21T07:13:16;2.00;;;1.90;;
30335;SDS011;17142;47.990;7.846;2023-04-21T07:15:42;3.40;;;2.30;;
30335;SDS011;17142;47.990;7.846;2023-04-21T07:18:08;3.03;;;2.00;;
30335;SDS011;17142;47.990;7.846;2023-04-21T07:23:50;4.43;;;2.87;;
30335;SDS011;17142;47.990;7.846;2023-04-21T07:26:16;4.07;;;3.00;;
30335;SDS011;17142;47.990;7.846;2023-04-21T07:28:51;4.67;;;3.50;;
30335;SDS011;17142;47.990;7.846;2023-04-21T07:31:25;4.57;;;3.80;;
30335;SDS011;17142;47.990;7.846;2023-04-21T07:34:00;6.90;;;4.20;;
30335;SDS011;17142;47.990;7.846;2023-04-21T07:36:37;5.20;;;3.70;;
30335;SDS011;17142;47.990;7.846;2023-04-21T07:39:06;8.90;;;4.67;;
30335;SDS011;17142;47.990;7.846;2023-04-21T07:41:32;5.33;;;4.83;;
30335;SDS011;17142;47.990;7.846;2023-04-21T07:44:03;6.60;;;4.10;;
30335;SDS011;17142;47.990;7.846;2023-04-21T07:46:37;8.23;;;5.20;;
30335;SDS011;17142;47.990;7.846;2023-04-21T07:49:03;6.10;;;4.93;;
30335;SDS011;17142;47.990;7.846;2023-04-21T07:51:32;5.20;;;4.70;;
30335;SDS011;17142;47.990;7.846;2023-04-21T07:54:05;6.03;;;5.10;;
30335;SDS011;17142;47.990;7.846;2023-04-21T07:56:38;9.67;;;5.80;;
30335;SDS011;17142;47.990;7.846;2023-04-21T07:59:28;5.60;;;4.80;;
30335;SDS011;17142;47.990;7.846;2023-04-21T08:01:59;6.30;;;5.20;;
30335;SDS011;17142;47.990;7.846;2023-04-21T08:04:31;6.63;;;5.47;;
30335;SDS011;17142;47.990;7.846;2023-04-21T08:07:02;7.37;;;5.60;;
30335;SDS011;17142;47.990;7.846;2023-04-21T08:09:33;6.60;;;4.60;;
30335;SDS011;17142;47.990;7.846;2023-04-21T08:12:16;5.20;;;4.63;;
30335;SDS011;17142;47.990;7.846;2023-04-21T08:14:45;8.57;;;5.10;;
30335;SDS011;17142;47.990;7.846;2023-04-21T08:17:11;5.77;;;5.10;;
30335;SDS011;17142;47.990;7.846;2023-04-21T08:19:36;6.80;;;5.80;;
30335;SDS011;17142;47.990;7.846;2023-04-21T08:22:02;6.57;;;5.70;;
30335;SDS011;17142;47.990;7.846;2023-04-21T08:24:39;8.27;;;6.20;;
30335;SDS011;17142;47.990;7.846;2023-04-21T08:27:11;6.30;;;5.43;;
30335;SDS011;17142;47.990;7.846;2023-04-21T08:29:45;8.10;;;6.20;;
30335;SDS011;17142;47.990;7.846;2023-04-21T08:32:11;9.27;;;5.00;;
30335;SDS011;17142;47.990;7.846;2023-04-21T08:34:51;6.03;;;5.40;;
30335;SDS011;17142;47.990;7.846;2023-04-21T08:37:18;6.40;;;5.83;;
30335;SDS011;17142;47.990;7.846;2023-04-21T08:39:44;5.77;;;4.73;;
30335;SDS011;17142;47.990;7.846;2023-04-21T08:42:12;6.60;;;3.93;;
30335;SDS011;17142;47.990;7.846;2023-04-21T08:44:45;4.70;;;4.07;;
30335;SDS011;17142;47.990;7.846;2023-04-21T08:47:17;5.20;;;4.13;;
30335;SDS011;17142;47.990;7.846;2023-04-21T08:50:14;5.17;;;3.40;;
30335;SDS011;17142;47.990;7.846;2023-04-21T08:52:39;5.20;;;4.70;;
30335;SDS011;17142;47.990;7.846;2023-04-21T08:58:02;4.83;;;4.20;;
30335;SDS011;17142;47.990;7.846;2023-04-21T09:00:35;3.80;;;3.50;;
30335;SDS011;17142;47.990;7.846;2023-04-21T09:03:09;4.70;;;4.13;;
30335;SDS011;17142;47.990;7.846;2023-04-21T09:05:35;5.10;;;4.60;;
30335;SDS011;17142;47.990;7.846;2023-04-21T09:08:19;4.90;;;3.80;;
30335;SDS011;17142;47.990;7.846;2023-04-21T09:10:46;5.80;;;3.83;;
30335;SDS011;17142;47.990;7.846;2023-04-21T09:13:14;4.77;;;4.27;;
30335;SDS011;17142;47.990;7.846;2023-04-21T09:15:56;7.50;;;5.00;;
30335;SDS011;17142;47.990;7.846;2023-04-21T09:18:29;6.10;;;4.53;;
30335;SDS011;17142;47.990;7.846;2023-04-21T09:23:47;5.30;;;4.53;;
30335;SDS011;17142;47.990;7.846;2023-04-21T09:26:20;4.00;;;3.63;;
30335;SDS011;17142;47.990;7.846;2023-04-21T09:29:01;4.90;;;4.10;;
30335;SDS011;17142;47.990;7.846;2023-04-21T09:31:39;5.07;;;4.60;;
30335;SDS011;17142;47.990;7.846;2023-04-21T09:34:20;5.43;;;4.93;;
30335;SDS011;17142;47.990;7.846;2023-04-21T09:37:05;5.20;;;4.47;;
30335;SDS011;17142;47.990;7.846;2023-04-21T09:39:36;5.40;;;4.40;;
30335;SDS011;17142;47.990;7.846;2023-04-21T09:42:05;4.23;;;3.83;;
30335;SDS011;17142;47.990;7.846;2023-04-21T09:44:38;9.73;;;6.43;;
30335;SDS011;17142;47.990;7.846;2023-04-21T09:47:03;8.23;;;6.50;;
30335;SDS011;17142;47.990;7.846;2023-04-21T09:52:44;7.20;;;6.50;;
30335;SDS011;17142;47.990;7.846;2023-04-21T09:55:37;7.87;;;6.40;;
30335;SDS011;17142;47.990;7.846;2023-04-21T09:58:03;9.40;;;7.23;;
30335;SDS011;17142;47.990;7.846;2023-04-21T10:00:46;8.80;;;6.70;;
30335;SDS011;17142;47.990;7.846;2023-04-21T10:03:15;6.10;;;5.50;;
30335;SDS011;17142;47.990;7.846;2023-04-21T10:08:31;10.37;;;7.30;;
30335;SDS011;17142;47.990;7.846;2023-04-21T10:10:58;12.83;;;6.90;;
30335;SDS011;17142;47.990;7.846;2023-04-21T10:13:30;7.47;;;6.60;;
30335;SDS011;17142;47.990;7.846;2023-04-21T10:16:08;6.53;;;5.37;;
30335;SDS011;17142;47.990;7.846;2023-04-21T10:18:49;8.23;;;6.50;;
30335;SDS011;17142;47.990;7.846;2023-04-21T10:24:38;7.30;;;6.60;;
30335;SDS011;17142;47.990;7.846;2023-04-21T10:27:33;9.27;;;6.90;;
30335;SDS011;17142;47.990;7.846;2023-04-21T10:33:12;7.77;;;6.80;;
30335;SDS011;17142;47.990;7.846;2023-04-21T10:36:05;9.27;;;7.00;;
30335;SDS011;17142;47.990;7.846;2023-04-21T10:41:43;9.53;;;8.53;;
30335;SDS011;17142;47.990;7.846;2023-04-21T10:44:30;10.23;;;7.07;;
30335;SDS011;17142;47.990;7.846;2023-04-21T10:47:08;9.20;;;7.40;;
30335;SDS011;17142;47.990;7.846;2023-04-21T10:49:37;11.43;;;8.00;;
30335;SDS011;17142;47.990;7.846;2023-04-21T10:55:47;9.80;;;7.60;;
30335;SDS011;17142;47.990;7.846;2023-04-21T10:58:23;9.33;;;8.30;;
30335;SDS011;17142;47.990;7.846;2023-04-21T11:01:26;13.50;;;9.07;;
30335;SDS011;17142;47.990;7.846;2023-04-21T11:03:52;8.17;;;7.07;;
30335;SDS011;17142;47.990;7.846;2023-04-21T11:06:27;11.00;;;8.07;;
30335;SDS011;17142;47.990;7.846;2023-04-21T11:08:58;10.20;;;8.00;;
30335;SDS011;17142;47.990;7.846;2023-04-21T11:15:10;8.90;;;8.00;;
30335;SDS011;17142;47.990;7.846;2023-04-21T11:17:45;8.27;;;6.87;;
30335;SDS011;17142;47.990;7.846;2023-04-21T11:20:22;7.60;;;6.80;;
30335;SDS011;17142;47.990;7.846;2023-04-21T11:22:55;8.87;;;7.70;;
30335;SDS011;17142;47.990;7.846;2023-04-21T11:25:28;8.97;;;7.60;;
30335;SDS011;17142;47.990;7.846;2023-04-21T11:28:19;8.10;;;6.00;;
30335;SDS011;17142;47.990;7.846;2023-04-21T11:30:46;8.27;;;7.43;;
30335;SDS011;17142;47.990;7.846;2023-04-21T11:33:19;8.80;;;7.67;;
30335;SDS011;17142;47.990;7.846;2023-04-21T11:35:44;8.80;;;7.90;;
30335;SDS011;17142;47.990;7.846;2023-04-21T11:38:13;10.20;;;7.93;;
30335;SDS011;17142;47.990;7.846;2023-04-21T11:40:58;7.87;;;7.13;;
30335;SDS011;17142;47.990;7.846;2023-04-21T11:43:28;11.70;;;7.40;;
30335;SDS011;17142;47.990;7.846;2023-04-21T11:49:10;7.40;;;6.23;;
30335;SDS011;17142;47.990;7.846;2023-04-21T11:51:43;8.30;;;6.97;;
30335;SDS011;17142;47.990;7.846;2023-04-21T11:54:16;10.00;;;7.50;;
30335;SDS011;17142;47.990;7.846;2023-04-21T12:00:28;9.33;;;7.40;;
30335;SDS011;17142;47.990;7.846;2023-04-21T12:06:03;6.50;;;5.17;;
30335;SDS011;17142;47.990;7.846;2023-04-21T12:08:30;8.03;;;6.20;;
30335;SDS011;17142;47.990;7.846;2023-04-21T12:16:07;9.20;;;7.17;;
30335;SDS011;17142;47.990;7.846;2023-04-21T12:18:34;8.30;;;6.60;;
30335;SDS011;17142;47.990;7.846;2023-04-21T12:21:00;6.33;;;5.17;;
30335;SDS011;17142;47.990;7.846;2023-04-21T12:23:27;12.53;;;6.60;;
30335;SDS011;17142;47.990;7.846;2023-04-21T12:25:53;15.07;;;7.30;;
30335;SDS011;17142;47.990;7.846;2023-04-21T12:28:21;12.30;;;6.67;;
30335;SDS011;17142;47.990;7.846;2023-04-21T12:30:49;8.90;;;5.57;;
30335;SDS011;17142;47.990;7.846;2023-04-21T12:33:15;6.57;;;5.87;;
30335;SDS011;17142;47.990;7.846;2023-04-21T12:35:41;6.00;;;5.40;;
30335;SDS011;17142;47.990;7.846;2023-04-21T12:38:07;5.47;;;4.83;;
30335;SDS011;17142;47.990;7.846;2023-04-21T12:40:33;7.20;;;5.73;;
30335;SDS011;17142;47.990;7.846;2023-04-21T12:42:59;7.10;;;5.30;;
30335;SDS011;17142;47.990;7.846;2023-04-21T12:45:27;5.33;;;4.67;;
30335;SDS011;17142;47.990;7.846;2023-04-21T12:47:55;7.27;;;6.40;;
30335;SDS011;17142;47.990;7.846;2023-04-21T12:50:22;7.80;;;5.63;;
30335;SDS011;17142;47.990;7.846;2023-04-21T12:52:47;7.30;;;5.63;;
30335;SDS011;17142;47.990;7.846;2023-04-21T12:55:15;6.30;;;5.70;;
30335;SDS011;17142;47.990;7.846;2023-04-21T12:57:41;5.60;;;5.10;;
30335;SDS011;17142;47.990;7.846;2023-04-21T13:00:07;8.27;;;6.20;;
30335;SDS011;17142;47.990;7.846;2023-04-21T13:02:36;9.03;;;5.53;;
30335;SDS011;17142;47.990;7.846;2023-04-21T13:05:04;7.90;;;5.27;;
30335;SDS011;17142;47.990;7.846;2023-04-21T13:07:32;6.93;;;5.63;;
30335;SDS011;17142;47.990;7.846;2023-04-21T13:09:58;7.50;;;5.03;;
30335;SDS011;17142;47.990;7.846;2023-04-21T13:12:24;7.00;;;5.70;;
30335;SDS011;17142;47.990;7.846;2023-04-21T13:14:49;6.93;;;6.20;;
30335;SDS011;17142;47.990;7.846;2023-04-21T13:17:15;8.03;;;6.87;;
30335;SDS011;17142;47.990;7.846;2023-04-21T13:19:43;7.27;;;6.37;;
30335;SDS011;17142;47.990;7.846;2023-04-21T13:22:12;6.07;;;4.93;;
30335;SDS011;17142;47.990;7.846;2023-04-21T13:24:40;7.33;;;5.93;;
30335;SDS011;17142;47.990;7.846;2023-04-21T13:27:06;6.60;;;4.83;;
30335;SDS011;17142;47.990;7.846;2023-04-21T13:29:31;7.00;;;5.90;;
30335;SDS011;17142;47.990;7.846;2023-04-21T13:31:58;8.67;;;6.07;;
30335;SDS011;17142;47.990;7.846;2023-04-21T13:34:28;6.67;;;5.60;;
30335;SDS011;17142;47.990;7.846;2023-04-21T13:36:54;5.47;;;4.90;;
30335;SDS011;17142;47.990;7.846;2023-04-21T13:39:19;9.20;;;6.37;;
30335;SDS011;17142;47.990;7.846;2023-04-21T13:41:47;8.77;;;7.27;;
30335;SDS011;17142;47.990;7.846;2023-04-21T13:44:17;11.50;;;6.70;;
30335;SDS011;17142;47.990;7.846;2023-04-21T13:46:45;9.07;;;7.93;;
30335;SDS011;17142;47.990;7.846;2023-04-21T13:49:10;6.50;;;5.90;;
30335;SDS011;17142;47.990;7.846;2023-04-21T13:51:36;8.70;;;6.43;;
30335;SDS011;17142;47.990;7.846;2023-04-21T13:54:02;7.90;;;6.97;;
30335;SDS011;17142;47.990;7.846;2023-04-21T13:56:27;8.43;;;7.00;;
30335;SDS011;17142;47.990;7.846;2023-04-21T13:58:53;8.67;;;6.67;;
30335;SDS011;17142;47.990;7.846;2023-04-21T14:01:20;5.20;;;4.57;;
30335;SDS011;17142;47.990;7.846;2023-04-21T14:03:45;7.80;;;7.00;;
30335;SDS011;17142;47.990;7.846;2023-04-21T14:06:11;7.10;;;6.20;;
30335;SDS011;17142;47.990;7.846;2023-04-21T14:08:37;8.47;;;6.43;;
30335;SDS011;17142;47.990;7.846;2023-04-21T14:11:05;10.20;;;5.13;;
30335;SDS011;17142;47.990;7.846;2023-04-21T14:13:33;8.60;;;7.67;;
30335;SDS011;17142;47.990;7.846;2023-04-21T14:15:58;5.57;;;5.07;;
30335;SDS011;17142;47.990;7.846;2023-04-21T14:18:24;7.77;;;7.07;;
30335;SDS011;17142;47.990;7.846;2023-04-21T14:20:50;7.43;;;6.63;;
30335;SDS011;17142;47.990;7.846;2023-04-21T14:23:16;7.67;;;6.57;;
30335;SDS011;17142;47.990;7.846;2023-04-21T14:25:41;8.27;;;6.37;;
30335;SDS011;17142;47.990;7.846;2023-04-21T14:28:08;6.87;;;5.80;;
30335;SDS011;17142;47.990;7.846;2023-04-21T14:30:34;6.97;;;6.27;;
30335;SDS011;17142;47.990;7.846;2023-04-21T14:33:02;7.70;;;6.90;;
30335;SDS011;17142;47.990;7.846;2023-04-21T14:35:30;10.67;;;8.67;;
30335;SDS011;17142;47.990;7.846;2023-04-21T14:37:59;8.97;;;7.37;;
30335;SDS011;17142;47.990;7.846;2023-04-21T14:40:25;10.13;;;8.03;;
30335;SDS011;17142;47.990;7.846;2023-04-21T14:42:53;8.90;;;7.60;;
30335;SDS011;17142;47.990;7.846;2023-04-21T14:45:19;9.07;;;7.80;;
30335;SDS011;17142;47.990;7.846;2023-04-21T14:47:45;7.40;;;6.70;;
30335;SDS011;17142;47.990;7.846;2023-04-21T14:50:10;9.40;;;6.77;;
30335;SDS011;17142;47.990;7.846;2023-04-21T14:52:36;8.73;;;7.40;;
30335;SDS011;17142;47.990;7.846;2023-04-21T14:55:02;5.87;;;5.27;;
30335;SDS011;17142;47.990;7.846;2023-04-21T14:57:28;11.30;;;9.67;;
30335;SDS011;17142;47.990;7.846;2023-04-21T14:59:54;10.17;;;9.13;;
30335;SDS011;17142;47.990;7.846;2023-04-21T15:02:20;10.63;;;8.30;;
30335;SDS011;17142;47.990;7.846;2023-04-21T15:04:46;6.63;;;5.97;;
30335;SDS011;17142;47.990;7.846;2023-04-21T15:07:16;8.53;;;7.03;;
30335;SDS011;17142;47.990;7.846;2023-04-21T15:09:42;6.10;;;4.90;;
30335;SDS011;17142;47.990;7.846;2023-04-21T15:12:09;7.43;;;6.53;;
30335;SDS011;17142;47.990;7.846;2023-04-21T15:14:37;10.67;;;7.33;;
30335;SDS011;17142;47.990;7.846;2023-04-21T15:17:03;10.90;;;7.70;;
30335;SDS011;17142;47.990;7.846;2023-04-21T15:19:29;9.23;;;7.77;;
30335;SDS011;17142;47.990;7.846;2023-04-21T15:21:55;10.70;;;8.60;;
30335;SDS011;17142;47.990;7.846;2023-04-21T15:24:21;8.73;;;7.20;;
30335;SDS011;17142;47.990;7.846;2023-04-21T15:26:49;6.93;;;6.20;;
30335;SDS011;17142;47.990;7.846;2023-04-21T15:29:17;7.73;;;6.30;;
30335;SDS011;17142;47.990;7.846;2023-04-21T15:31:43;7.10;;;5.93;;
30335;SDS011;17142;47.990;7.846;2023-04-21T15:34:09;7.90;;;6.27;;
30335;SDS011;17142;47.990;7.846;2023-04-21T15:36:37;7.47;;;6.37;;
30335;SDS011;17142;47.990;7.846;2023-04-21T15:39:03;4.43;;;3.87;;
30335;SDS011;17142;47.990;7.846;2023-04-21T15:41:28;6.73;;;5.63;;
30335;SDS011;17142;47.990;7.846;2023-04-21T15:43:55;7.00;;;5.67;;
30335;SDS011;17142;47.990;7.846;2023-04-21T15:46:22;6.70;;;5.80;;
30335;SDS011;17142;47.990;7.846;2023-04-21T15:48:48;7.77;;;5.57;;
30335;SDS011;17142;47.990;7.846;2023-04-21T15:51:13;5.50;;;4.97;;